createdAt,value
2018-11-01T00:00:50.873Z,8.60
2018-11-01T00:03:19.165Z,8.80
2018-11-01T00:05:47.227Z,8.70
2018-11-01T00:08:15.390Z,8.60
2018-11-01T00:10:44.301Z,8.60
2018-11-01T00:13:12.456Z,8.50
2018-11-01T00:15:40.844Z,8.60
2018-11-01T00:18:08.990Z,8.50
2018-11-01T00:20:37.075Z,8.50
2018-11-01T00:23:05.683Z,8.40
2018-11-01T00:25:33.904Z,8.30
2018-11-01T00:28:02.119Z,8.30
2018-11-01T00:30:30.209Z,8.40
2018-11-01T00:32:58.377Z,8.30
2018-11-01T00:35:26.445Z,8.20
2018-11-01T00:37:54.746Z,7.90
2018-11-01T00:40:22.877Z,7.90
2018-11-01T00:42:51.010Z,8.00
2018-11-01T00:45:19.247Z,8.10
2018-11-01T00:47:47.419Z,8.20
2018-11-01T00:50:15.492Z,8.20
2018-11-01T00:52:43.963Z,8.20
2018-11-01T00:55:12.942Z,8.20
2018-11-01T00:57:41.731Z,8.30
2018-11-01T01:00:12.770Z,8.20
2018-11-01T01:02:40.969Z,8.20
2018-11-01T01:05:10.543Z,8.10
2018-11-01T01:07:38.701Z,8.10
2018-11-01T01:10:13.009Z,8.00
2018-11-01T01:12:42.329Z,7.90
2018-11-01T01:15:10.460Z,7.70
2018-11-01T01:17:39.097Z,7.80
2018-11-01T01:20:10.745Z,7.50
2018-11-01T01:22:39.543Z,7.50
2018-11-01T01:25:09.757Z,7.60
2018-11-01T01:27:38.011Z,7.80
2018-11-01T01:30:09.350Z,7.90
2018-11-01T01:32:37.494Z,8.00
2018-11-01T01:35:06.638Z,7.90
2018-11-01T01:37:34.855Z,8.00
2018-11-01T01:40:03.098Z,8.10
2018-11-01T01:42:35.157Z,8.10
2018-11-01T01:45:04.802Z,8.20
2018-11-01T01:47:33.441Z,8.20
2018-11-01T01:50:01.573Z,8.20
2018-11-01T01:52:29.648Z,8.00
2018-11-01T01:54:58.192Z,8.20
2018-11-01T01:57:26.357Z,8.00
2018-11-01T01:59:54.474Z,8.00
2018-11-01T02:02:22.541Z,7.90
2018-11-01T02:04:50.684Z,8.00
2018-11-01T02:07:18.857Z,7.60
2018-11-01T02:09:46.986Z,7.80
2018-11-01T02:12:15.099Z,7.70
2018-11-01T02:14:43.208Z,7.60
2018-11-01T02:17:11.365Z,7.50
2018-11-01T02:19:39.428Z,7.60
2018-11-01T02:22:07.630Z,7.60
2018-11-01T02:24:35.723Z,7.70
2018-11-01T02:27:04.169Z,7.70
2018-11-01T02:29:32.353Z,7.90
2018-11-01T02:32:00.431Z,7.90
2018-11-01T02:34:28.666Z,7.80
2018-11-01T02:36:56.808Z,8.00
2018-11-01T02:39:24.870Z,8.00
2018-11-01T02:41:53.253Z,8.20
2018-11-01T02:44:21.413Z,8.20
2018-11-01T02:46:49.684Z,8.10
2018-11-01T02:49:17.780Z,8.10
2018-11-01T02:51:45.881Z,7.80
2018-11-01T02:54:14.056Z,7.70
2018-11-01T02:56:42.292Z,7.70
2018-11-01T02:59:10.436Z,7.70
2018-11-01T03:01:38.584Z,7.70
2018-11-01T03:04:06.741Z,7.70
2018-11-01T03:06:34.949Z,7.40
2018-11-01T03:09:03.973Z,7.30
2018-11-01T03:11:32.097Z,7.50
2018-11-01T03:14:00.230Z,7.70
2018-11-01T03:16:28.344Z,7.70
2018-11-01T03:18:56.464Z,7.70
2018-11-01T03:21:24.625Z,7.90
2018-11-01T03:23:52.673Z,7.90
2018-11-01T03:26:20.696Z,7.80
2018-11-01T03:28:48.859Z,7.80
2018-11-01T03:31:16.944Z,7.50
2018-11-01T03:33:45.001Z,7.30
2018-11-01T03:36:13.098Z,7.10
2018-11-01T03:38:41.187Z,7.30
2018-11-01T03:41:09.277Z,7.40
2018-11-01T03:43:37.494Z,7.60
2018-11-01T03:46:06.136Z,7.70
2018-11-01T03:48:34.192Z,7.70
2018-11-01T03:51:02.237Z,7.70
2018-11-01T03:53:30.407Z,7.50
2018-11-01T03:55:58.434Z,7.20
2018-11-01T03:58:26.502Z,7.10
2018-11-01T04:00:54.628Z,7.00
2018-11-01T04:03:22.924Z,6.90
2018-11-01T04:05:51.090Z,6.90
2018-11-01T04:08:19.608Z,7.00
2018-11-01T04:10:47.744Z,6.60
2018-11-01T04:13:15.845Z,6.60
2018-11-01T04:15:43.945Z,6.80
2018-11-01T04:18:12.033Z,6.90
2018-11-01T04:20:40.140Z,7.00
2018-11-01T04:23:08.279Z,7.00
2018-11-01T04:25:36.338Z,6.90
2018-11-01T04:28:04.780Z,6.90
2018-11-01T04:30:32.967Z,6.80
2018-11-01T04:33:01.162Z,6.80
2018-11-01T04:35:29.295Z,6.80
2018-11-01T04:37:57.484Z,6.80
2018-11-01T04:40:25.634Z,6.80
2018-11-01T04:42:53.704Z,6.40
2018-11-01T04:45:21.879Z,6.60
2018-11-01T04:47:50.069Z,6.50
2018-11-01T04:50:18.039Z,6.60
2018-11-01T04:52:46.070Z,6.40
2018-11-01T04:55:14.231Z,6.50
2018-11-01T04:57:42.304Z,6.60
2018-11-01T05:00:12.387Z,6.40
2018-11-01T05:02:40.934Z,6.20
2018-11-01T05:05:09.090Z,6.40
2018-11-01T05:07:37.664Z,6.40
2018-11-01T05:10:08.090Z,6.60
2018-11-01T05:12:36.585Z,6.60
2018-11-01T05:15:05.257Z,6.40
2018-11-01T05:17:33.455Z,6.10
2018-11-01T05:20:01.550Z,6.30
2018-11-01T05:22:29.616Z,6.60
2018-11-01T05:24:57.724Z,6.30
2018-11-01T05:27:26.025Z,6.30
2018-11-01T05:29:54.158Z,6.60
2018-11-01T05:32:22.300Z,6.50
2018-11-01T05:34:50.527Z,6.40
2018-11-01T05:37:18.663Z,6.60
2018-11-01T05:39:46.777Z,7.00
2018-11-01T05:42:14.879Z,7.10
2018-11-01T05:44:43.042Z,7.10
2018-11-01T05:47:11.162Z,7.00
2018-11-01T05:49:39.278Z,6.90
2018-11-01T05:52:07.477Z,7.00
2018-11-01T05:54:35.615Z,6.90
2018-11-01T05:57:04.011Z,7.10
2018-11-01T05:59:32.194Z,7.10
2018-11-01T06:02:02.921Z,7.00
2018-11-01T06:04:31.276Z,7.00
2018-11-01T06:07:00.461Z,7.00
2018-11-01T06:09:30.014Z,6.90
2018-11-01T06:11:58.343Z,6.70
2018-11-01T06:14:27.011Z,6.70
2018-11-01T06:16:55.536Z,6.70
2018-11-01T06:19:23.699Z,6.70
2018-11-01T06:21:51.772Z,6.70
2018-11-01T06:24:19.920Z,6.50
2018-11-01T06:26:48.036Z,6.60
2018-11-01T06:29:16.155Z,6.60
2018-11-01T06:31:44.306Z,6.50
2018-11-01T06:34:20.169Z,6.40
2018-11-01T06:36:48.439Z,6.30
2018-11-01T06:39:19.922Z,6.60
2018-11-01T06:41:49.704Z,6.90
2018-11-01T06:44:17.952Z,7.10
2018-11-01T06:46:46.505Z,7.40
2018-11-01T06:49:15.266Z,7.50
2018-11-01T06:51:43.388Z,7.40
2018-11-01T06:54:11.965Z,7.20
2018-11-01T06:56:40.165Z,7.40
2018-11-01T06:59:08.449Z,7.40
2018-11-01T07:01:36.659Z,7.50
2018-11-01T07:04:05.019Z,7.60
2018-11-01T07:06:34.256Z,7.70
2018-11-01T07:09:02.700Z,7.50
2018-11-01T07:11:30.960Z,7.80
2018-11-01T07:13:59.028Z,7.90
2018-11-01T07:16:27.115Z,8.00
2018-11-01T07:18:55.250Z,7.90
2018-11-01T07:21:23.386Z,8.30
2018-11-01T07:23:51.471Z,7.90
2018-11-01T07:26:19.846Z,8.20
2018-11-01T07:28:47.942Z,8.10
2018-11-01T07:31:16.036Z,8.10
2018-11-01T07:33:44.267Z,8.00
2018-11-01T07:36:12.379Z,8.20
2018-11-01T07:38:40.478Z,8.30
2018-11-01T07:41:08.775Z,8.40
2018-11-01T07:43:37.235Z,8.30
2018-11-01T07:46:05.428Z,8.30
2018-11-01T07:48:33.739Z,8.60
2018-11-01T07:51:01.791Z,8.90
2018-11-01T07:53:29.948Z,8.80
2018-11-01T07:55:58.163Z,8.60
2018-11-01T07:58:26.408Z,8.70
2018-11-01T08:00:54.588Z,8.80
2018-11-01T08:03:22.745Z,8.60
2018-11-01T08:05:50.963Z,8.80
2018-11-01T08:08:19.076Z,8.50
2018-11-01T08:10:47.167Z,8.30
2018-11-01T08:13:15.308Z,8.60
2018-11-01T08:15:43.408Z,9.10
2018-11-01T08:18:11.468Z,9.40
2018-11-01T08:20:39.795Z,9.60
2018-11-01T08:23:08.055Z,9.70
2018-11-01T08:25:36.207Z,9.70
2018-11-01T08:28:04.679Z,9.60
2018-11-01T08:30:32.777Z,9.90
2018-11-01T08:33:00.954Z,9.90
2018-11-01T08:35:29.036Z,9.80
2018-11-01T08:37:57.184Z,9.70
2018-11-01T08:40:25.362Z,10.00
2018-11-01T08:42:53.547Z,10.20
2018-11-01T08:45:21.678Z,10.30
2018-11-01T08:47:49.818Z,10.20
2018-11-01T08:50:17.942Z,9.80
2018-11-01T08:52:46.133Z,9.90
2018-11-01T08:55:14.710Z,9.40
2018-11-01T08:57:44.085Z,10.00
2018-11-01T09:00:12.879Z,9.60
2018-11-01T09:02:42.012Z,9.50
2018-11-01T09:05:11.167Z,9.70
2018-11-01T09:07:40.017Z,9.40
2018-11-01T09:10:11.809Z,9.90
2018-11-01T09:12:40.275Z,9.70
2018-11-01T09:15:11.832Z,10.40
2018-11-01T09:17:40.379Z,10.20
2018-11-01T09:20:09.373Z,10.80
2018-11-01T09:22:37.752Z,10.60
2018-11-01T09:25:06.427Z,10.90
2018-11-01T09:27:34.825Z,11.30
2018-11-01T09:30:04.133Z,11.60
2018-11-01T09:32:32.268Z,11.50
2018-11-01T09:35:00.507Z,11.40
2018-11-01T09:37:28.667Z,11.30
2018-11-01T09:39:56.800Z,11.40
2018-11-01T09:42:24.989Z,11.40
2018-11-01T09:44:53.087Z,11.60
2018-11-01T09:47:21.492Z,11.50
2018-11-01T09:49:49.504Z,11.50
2018-11-01T09:52:17.705Z,11.50
2018-11-01T09:54:46.627Z,11.30
2018-11-01T09:57:14.939Z,11.10
2018-11-01T09:59:43.197Z,11.40
2018-11-01T10:02:12.487Z,11.30
2018-11-01T10:04:40.791Z,11.20
2018-11-01T10:07:09.124Z,11.30
2018-11-01T10:09:37.407Z,11.30
2018-11-01T10:12:05.867Z,11.50
2018-11-01T10:14:34.000Z,11.50
2018-11-01T10:17:02.709Z,11.70
2018-11-01T10:19:30.547Z,11.70
2018-11-01T10:21:58.679Z,11.70
2018-11-01T10:24:26.857Z,11.50
2018-11-01T10:26:55.200Z,11.70
2018-11-01T10:29:23.359Z,11.60
2018-11-01T10:31:51.761Z,11.50
2018-11-01T10:34:19.813Z,11.80
2018-11-01T10:36:47.893Z,11.50
2018-11-01T10:39:16.074Z,11.60
2018-11-01T10:41:44.601Z,10.70
2018-11-01T10:44:12.828Z,10.30
2018-11-01T10:46:41.670Z,10.20
2018-11-01T10:49:09.890Z,10.70
2018-11-01T10:51:38.182Z,10.80
2018-11-01T10:54:06.589Z,11.30
2018-11-01T10:56:34.846Z,12.00
2018-11-01T10:59:03.205Z,11.40
2018-11-01T11:01:36.034Z,11.20
2018-11-01T11:04:05.198Z,11.80
2018-11-01T11:06:33.288Z,12.10
2018-11-01T11:09:01.614Z,12.70
2018-11-01T11:11:30.214Z,12.60
2018-11-01T11:13:58.478Z,12.50
2018-11-01T11:16:26.644Z,12.70
2018-11-01T11:18:54.936Z,12.70
2018-11-01T11:21:23.112Z,12.70
2018-11-01T11:23:51.217Z,12.50
2018-11-01T11:26:19.542Z,12.10
2018-11-01T11:28:47.660Z,12.20
2018-11-01T11:31:15.714Z,12.30
2018-11-01T11:33:43.887Z,12.20
2018-11-01T11:36:18.613Z,12.20
2018-11-01T11:38:46.805Z,12.20
2018-11-01T11:41:14.940Z,11.90
2018-11-01T11:43:43.192Z,11.80
2018-11-01T11:46:11.692Z,11.70
2018-11-01T11:48:39.960Z,11.70
2018-11-01T11:51:08.080Z,11.90
2018-11-01T11:53:36.230Z,12.30
2018-11-01T11:56:04.642Z,12.00
2018-11-01T11:58:32.766Z,12.20
2018-11-01T12:01:01.034Z,12.50
2018-11-01T12:03:29.164Z,12.60
2018-11-01T12:05:57.416Z,12.60
2018-11-01T12:08:25.404Z,12.40
2018-11-01T12:10:53.550Z,12.60
2018-11-01T12:13:21.633Z,12.30
2018-11-01T12:15:49.745Z,12.50
2018-11-01T12:18:17.879Z,12.30
2018-11-01T12:20:45.993Z,12.20
2018-11-01T12:23:14.136Z,12.40
2018-11-01T12:25:42.290Z,12.50
2018-11-01T12:28:10.434Z,12.30
2018-11-01T12:30:38.855Z,12.10
2018-11-01T12:33:07.027Z,12.10
2018-11-01T12:35:35.713Z,12.10
2018-11-01T12:38:04.016Z,11.90
2018-11-01T12:40:32.389Z,11.90
2018-11-01T12:43:00.646Z,11.90
2018-11-01T12:45:28.836Z,11.80
2018-11-01T12:50:39.608Z,11.70
2018-11-01T12:53:07.691Z,11.80
2018-11-01T12:55:35.819Z,11.90
2018-11-01T12:58:04.233Z,11.60
2018-11-01T13:00:32.560Z,11.60
2018-11-01T13:03:00.785Z,11.80
2018-11-01T13:05:29.012Z,11.80
2018-11-01T13:07:57.101Z,12.00
2018-11-01T13:10:25.389Z,11.90
2018-11-01T13:12:53.704Z,11.70
2018-11-01T13:15:21.923Z,11.40
2018-11-01T13:17:50.668Z,11.80
2018-11-01T13:20:18.787Z,11.90
2018-11-01T13:22:46.956Z,11.70
2018-11-01T13:25:15.190Z,11.60
2018-11-01T13:27:43.492Z,11.80
2018-11-01T13:30:14.072Z,12.00
2018-11-01T13:32:43.406Z,12.00
2018-11-01T13:35:11.774Z,12.30
2018-11-01T13:37:39.843Z,12.00
2018-11-01T13:40:08.787Z,12.50
2018-11-01T13:42:36.805Z,11.90
2018-11-01T13:45:05.648Z,12.10
2018-11-01T13:47:34.096Z,12.10
2018-11-01T13:50:02.114Z,12.50
2018-11-01T13:52:30.732Z,12.80
2018-11-01T13:54:58.886Z,12.70
2018-11-01T13:57:26.998Z,12.40
2018-11-01T13:59:55.206Z,12.30
2018-11-01T14:02:23.433Z,12.30
2018-11-01T14:04:51.500Z,12.40
2018-11-01T14:07:19.789Z,12.70
2018-11-01T14:09:48.004Z,12.30
2018-11-01T14:12:16.537Z,12.70
2018-11-01T14:14:45.331Z,12.70
2018-11-01T14:17:13.184Z,12.50
2018-11-01T14:19:41.408Z,12.80
2018-11-01T14:22:09.581Z,12.40
2018-11-01T14:24:37.690Z,12.30
2018-11-01T14:27:06.029Z,12.40
2018-11-01T14:29:34.151Z,12.30
2018-11-01T14:32:02.471Z,12.50
2018-11-01T14:34:30.680Z,12.50
2018-11-01T14:36:58.998Z,11.90
2018-11-01T14:39:27.125Z,12.50
2018-11-01T14:41:55.290Z,12.60
2018-11-01T14:44:23.480Z,12.50
2018-11-01T14:46:51.596Z,12.50
2018-11-01T14:49:19.780Z,12.60
2018-11-01T14:51:48.012Z,12.60
2018-11-01T14:54:16.754Z,12.80
2018-11-01T14:56:45.781Z,12.90
2018-11-01T14:59:13.769Z,13.20
2018-11-01T15:01:40.679Z,13.30
2018-11-01T15:04:08.875Z,12.70
2018-11-01T15:06:37.098Z,12.50
2018-11-01T15:09:09.282Z,12.80
2018-11-01T15:11:37.590Z,12.60
2018-11-01T15:14:05.745Z,12.90
2018-11-01T15:16:34.027Z,13.00
2018-11-01T15:19:02.346Z,13.30
2018-11-01T15:21:30.517Z,13.90
2018-11-01T15:23:58.684Z,14.20
2018-11-01T15:26:26.984Z,14.20
2018-11-01T15:28:55.226Z,14.10
2018-11-01T15:31:23.577Z,13.40
2018-11-01T15:33:51.826Z,12.80
2018-11-01T15:36:20.054Z,12.30
2018-11-01T15:38:48.321Z,12.50
2018-11-01T15:41:16.584Z,12.60
2018-11-01T15:43:44.877Z,12.60
2018-11-01T15:46:13.098Z,12.40
2018-11-01T15:48:41.495Z,12.50
2018-11-01T15:51:10.980Z,12.20
2018-11-01T15:53:39.149Z,12.00
2018-11-01T15:56:07.657Z,11.90
2018-11-01T15:58:35.928Z,11.90
2018-11-01T16:01:04.780Z,11.60
2018-11-01T16:03:33.114Z,11.40
2018-11-01T16:06:01.286Z,11.00
2018-11-01T16:08:29.453Z,10.80
2018-11-01T16:10:57.639Z,10.70
2018-11-01T16:13:25.977Z,10.50
2018-11-01T16:15:54.246Z,10.90
2018-11-01T16:18:22.569Z,11.00
2018-11-01T16:20:50.724Z,10.70
2018-11-01T16:23:19.171Z,10.70
2018-11-01T16:25:48.957Z,11.00
2018-11-01T16:28:17.424Z,10.90
2018-11-01T16:30:45.715Z,10.90
2018-11-01T16:33:14.095Z,10.80
2018-11-01T16:35:42.418Z,10.70
2018-11-01T16:38:10.761Z,10.90
2018-11-01T16:40:39.038Z,10.70
2018-11-01T16:43:07.377Z,10.70
2018-11-01T16:45:35.614Z,10.70
2018-11-01T16:48:04.095Z,10.70
2018-11-01T16:50:32.460Z,10.60
2018-11-01T16:53:00.792Z,10.60
2018-11-01T16:55:29.089Z,10.50
2018-11-01T16:57:57.262Z,10.20
2018-11-01T17:00:25.674Z,10.20
2018-11-01T17:02:53.887Z,10.10
2018-11-01T17:05:22.153Z,9.60
2018-11-01T17:07:50.512Z,9.70
2018-11-01T17:10:19.302Z,9.80
2018-11-01T17:12:47.920Z,10.00
2018-11-01T17:15:16.329Z,9.90
2018-11-01T17:17:45.661Z,9.90
2018-11-01T17:20:14.142Z,9.80
2018-11-01T17:22:42.534Z,9.80
2018-11-01T17:25:10.902Z,9.80
2018-11-01T17:27:39.277Z,9.30
2018-11-01T17:30:08.859Z,9.30
2018-11-01T17:32:41.773Z,9.20
2018-11-01T17:35:10.167Z,9.10
2018-11-01T17:37:38.581Z,9.30
2018-11-01T17:40:08.165Z,9.30
2018-11-01T17:42:36.616Z,9.00
2018-11-01T17:45:06.316Z,8.80
2018-11-01T17:47:34.897Z,8.80
2018-11-01T17:50:04.385Z,8.70
2018-11-01T17:52:32.709Z,9.00
2018-11-01T17:55:01.030Z,9.10
2018-11-01T17:57:29.493Z,9.20
2018-11-01T17:59:57.875Z,9.20
2018-11-01T18:02:26.349Z,9.10
2018-11-01T18:04:54.706Z,9.00
2018-11-01T18:07:23.127Z,9.00
2018-11-01T18:09:51.643Z,9.20
2018-11-01T18:12:19.930Z,9.10
2018-11-01T18:14:48.269Z,9.10
2018-11-01T18:17:16.589Z,9.10
2018-11-01T18:19:44.987Z,8.80
2018-11-01T18:22:13.360Z,8.70
2018-11-01T18:24:41.633Z,8.70
2018-11-01T18:27:10.536Z,8.80
2018-11-01T18:29:38.913Z,8.90
2018-11-01T18:32:07.371Z,8.90
2018-11-01T18:34:35.578Z,9.00
2018-11-01T18:37:03.889Z,8.90
2018-11-01T18:39:32.317Z,8.80
2018-11-01T18:42:00.663Z,8.60
2018-11-01T18:44:29.072Z,8.40
2018-11-01T18:46:57.427Z,8.50
2018-11-01T18:49:25.785Z,8.50
2018-11-01T18:51:54.197Z,8.50
2018-11-01T18:54:22.598Z,8.10
2018-11-01T18:56:51.019Z,8.00
2018-11-01T18:59:19.283Z,8.10
2018-11-01T19:01:47.625Z,8.20
2018-11-01T19:04:16.222Z,8.20
2018-11-01T19:06:44.629Z,8.00
2018-11-01T19:09:13.130Z,8.20
2018-11-01T19:11:41.684Z,8.20
2018-11-01T19:14:10.534Z,8.10
2018-11-01T19:16:38.815Z,8.10
2018-11-01T19:19:07.289Z,8.10
2018-11-01T19:21:35.841Z,8.20
2018-11-01T19:24:04.439Z,8.20
2018-11-01T19:26:32.715Z,8.20
2018-11-01T19:29:01.099Z,8.10
2018-11-01T19:31:29.495Z,7.90
2018-11-01T19:33:57.977Z,8.00
2018-11-01T19:36:26.291Z,7.90
2018-11-01T19:38:54.691Z,8.10
2018-11-01T19:41:23.188Z,8.00
2018-11-01T19:43:51.428Z,8.10
2018-11-01T19:46:19.862Z,8.10
2018-11-01T19:48:48.221Z,7.90
2018-11-01T19:51:16.644Z,8.00
2018-11-01T19:53:45.218Z,8.10
2018-11-01T19:56:13.864Z,7.80
2018-11-01T19:58:42.159Z,7.80
2018-11-01T20:01:10.662Z,8.00
2018-11-01T20:03:38.973Z,8.00
2018-11-01T20:06:07.290Z,8.00
2018-11-01T20:08:35.708Z,8.00
2018-11-01T20:11:04.790Z,8.00
2018-11-01T20:13:33.180Z,8.10
2018-11-01T20:16:01.510Z,8.20
2018-11-01T20:18:29.853Z,8.20
2018-11-01T20:20:58.180Z,8.30
2018-11-01T20:23:26.456Z,8.00
2018-11-01T20:25:54.774Z,8.20
2018-11-01T20:28:23.175Z,8.30
2018-11-01T20:30:51.536Z,7.90
2018-11-01T20:33:19.826Z,7.70
2018-11-01T20:35:48.246Z,7.90
2018-11-01T20:38:16.663Z,7.90
2018-11-01T20:40:45.048Z,8.20
2018-11-01T20:43:13.571Z,8.50
2018-11-01T20:45:41.957Z,8.50
2018-11-01T20:48:10.314Z,8.50
2018-11-01T20:50:38.677Z,8.60
2018-11-01T20:53:06.984Z,8.60
2018-11-01T20:55:35.267Z,8.70
2018-11-01T20:58:03.645Z,8.60
2018-11-01T21:00:31.962Z,8.40
2018-11-01T21:03:00.651Z,8.40
2018-11-01T21:05:29.061Z,8.50
2018-11-01T21:07:57.476Z,8.60
2018-11-01T21:10:25.840Z,8.70
2018-11-01T21:12:54.220Z,8.80
2018-11-01T21:15:23.674Z,8.80
2018-11-01T21:17:51.982Z,8.70
2018-11-01T21:20:20.322Z,8.90
2018-11-01T21:22:48.638Z,8.80
2018-11-01T21:25:16.838Z,8.70
2018-11-01T21:27:45.113Z,8.70
2018-11-01T21:30:13.407Z,8.90
2018-11-01T21:32:41.699Z,8.70
2018-11-01T21:35:10.048Z,8.50
2018-11-01T21:37:38.299Z,8.70
2018-11-01T21:40:08.300Z,8.70
2018-11-01T21:42:36.801Z,8.70
2018-11-01T21:45:07.274Z,8.80
2018-11-01T21:47:35.849Z,9.00
2018-11-01T21:50:04.424Z,9.10
2018-11-01T21:52:33.057Z,9.20
2018-11-01T21:55:01.382Z,9.30
2018-11-01T21:57:29.630Z,9.40
2018-11-01T21:59:57.989Z,9.40
2018-11-01T22:02:26.273Z,9.60
2018-11-01T22:04:54.693Z,9.60
2018-11-01T22:07:23.049Z,9.40
2018-11-01T22:09:51.417Z,9.00
2018-11-01T22:12:19.576Z,9.20
2018-11-01T22:14:47.866Z,9.30
2018-11-01T22:17:16.097Z,9.20
2018-11-01T22:19:44.311Z,9.00
2018-11-01T22:22:12.554Z,9.10
2018-11-01T22:24:40.748Z,9.10
2018-11-01T22:27:09.028Z,9.50
2018-11-01T22:29:37.204Z,9.30
2018-11-01T22:32:05.839Z,9.50
2018-11-01T22:34:34.220Z,9.40
2018-11-01T22:37:02.444Z,9.20
2018-11-01T22:39:30.628Z,9.20
2018-11-01T22:41:59.070Z,9.20
2018-11-01T22:44:27.333Z,9.00
2018-11-01T22:46:55.573Z,9.20
2018-11-01T22:49:23.840Z,9.30
2018-11-01T22:51:52.797Z,9.10
2018-11-01T22:54:20.927Z,9.30
2018-11-01T22:56:49.316Z,9.20
2018-11-01T22:59:17.497Z,9.10
2018-11-01T23:01:45.749Z,9.10
2018-11-01T23:04:13.962Z,9.10
2018-11-01T23:06:42.245Z,8.90
2018-11-01T23:09:10.596Z,8.70
2018-11-01T23:11:39.456Z,8.60
2018-11-01T23:14:07.920Z,8.70
2018-11-01T23:16:36.543Z,8.60
2018-11-01T23:19:05.389Z,8.20
2018-11-01T23:21:33.625Z,8.10
2018-11-01T23:24:01.916Z,8.10
2018-11-01T23:26:30.185Z,8.10
2018-11-01T23:28:58.867Z,8.00
2018-11-01T23:31:27.068Z,8.10
2018-11-01T23:33:55.207Z,7.70
2018-11-01T23:36:22.846Z,7.50
2018-11-01T23:38:58.360Z,7.60
2018-11-01T23:41:35.646Z,7.50
2018-11-01T23:44:13.602Z,7.70
2018-11-01T23:46:48.315Z,7.80
2018-11-01T23:49:21.328Z,7.90
2018-11-01T23:51:55.603Z,8.00
2018-11-01T23:54:23.807Z,8.20
2018-11-01T23:56:52.056Z,8.20
2018-11-01T23:59:20.696Z,8.20
